Time;durP1;ratioP1;P1;durP2;ratioP2;P2;SDS_P1;SDS_P2;PMS_P1;PMS_P2;Temp;Humidity;BMP_temperature;BMP_pressure;BME280_temperature;BME280_humidity;BME280_pressure;Samples;Min_cycle;Max_cycle;Signal;HPM_P1;HPM_P2
2023/12/24 00:01:26;;;;;;;1.57;1.47;;;;;;;4.90;100.00;64965.47;6184013;23;20166;-59
2023/12/24 00:03:53;;;;;;;1.37;1.30;;;;;;;4.91;100.00;66258.16;6184251;23;20537;-57
2023/12/24 00:06:22;;;;;;;1.17;1.17;;;;;;;4.86;100.00;66252.41;6183900;23;20162;-57
2023/12/24 00:08:49;;;;;;;1.00;1.00;;;;;;;5.05;100.00;65951.19;6183956;23;20162;-58
2023/12/24 00:11:16;;;;;;;1.20;1.13;;;;;;;4.98;100.00;66912.22;6183726;23;20182;-58
2023/12/24 00:13:43;;;;;;;1.27;1.27;;;;;;;5.01;100.00;67561.88;6183542;23;20169;-57
2023/12/24 00:16:10;;;;;;;1.50;1.40;;;;;;;4.95;100.00;65939.22;6184414;23;20221;-58
2023/12/24 00:18:37;;;;;;;1.33;1.30;;;;;;;4.93;100.00;67552.53;6183850;23;20198;-58
2023/12/24 00:21:05;;;;;;;1.30;1.30;;;;;;;4.97;100.00;67880.31;6183838;23;20161;-57
2023/12/24 00:23:33;;;;;;;1.40;1.40;;;;;;;5.09;100.00;67893.25;6184151;23;20166;-58
2023/12/24 00:26:00;;;;;;;1.37;1.37;;;;;;;5.08;100.00;69185.66;6184176;23;20162;-59
2023/12/24 00:28:27;;;;;;;1.50;1.40;;;;;;;5.18;100.00;69520.41;6184272;23;20216;-58
2023/12/24 00:30:54;;;;;;;1.60;1.50;;;;;;;5.24;100.00;71468.72;6184185;23;20209;-57
2023/12/24 00:33:22;;;;;;;1.70;1.60;;;;;;;5.39;100.00;74077.72;6184144;23;20213;-59
2023/12/24 00:35:49;;;;;;;1.13;1.13;;;;;;;5.28;100.00;78925.97;6183726;23;20162;-58
2023/12/24 00:38:16;;;;;;;1.30;1.30;;;;;;;5.32;100.00;79580.19;6184138;23;20162;-59
2023/12/24 00:40:44;;;;;;;1.30;1.30;;;;;;;5.26;100.00;78274.00;6183732;23;20258;-57
2023/12/24 00:43:11;;;;;;;1.10;1.10;;;;;;;5.25;100.00;79569.94;6184107;23;20165;-59
2023/12/24 00:45:38;;;;;;;1.60;1.30;;;;;;;5.27;100.00;80870.47;6183555;23;20162;-56
2023/12/24 00:48:06;;;;;;;1.50;1.50;;;;;;;5.26;100.00;79246.94;6183992;23;20590;-57
2023/12/24 00:50:33;;;;;;;1.30;1.30;;;;;;;5.15;100.00;80204.94;6183489;23;20178;-57
2023/12/24 00:53:00;;;;;;;1.70;1.60;;;;;;;5.24;100.00;81840.66;6183854;23;20201;-58
2023/12/24 00:55:27;;;;;;;1.50;1.50;;;;;;;5.26;100.00;82817.41;6183729;23;20162;-58
2023/12/24 00:57:56;;;;;;;1.23;1.23;;;;;;;5.34;100.00;83152.84;6183541;23;20162;-57
2023/12/24 01:00:23;;;;;;;2.77;2.17;;;;;;;5.23;100.00;82488.47;6183960;23;20610;-57
2023/12/24 01:02:50;;;;;;;1.97;1.87;;;;;;;5.32;100.00;81202.00;6183996;23;20224;-57
2023/12/24 01:05:17;;;;;;;2.07;1.97;;;;;;;5.22;100.00;78917.81;6183983;23;20594;-58
2023/12/24 01:07:44;;;;;;;1.93;1.83;;;;;;;5.32;100.00;78606.41;6183904;23;20221;-58
2023/12/24 01:10:12;;;;;;;2.17;2.07;;;;;;;5.25;100.00;76976.53;6183613;23;20151;-57
2023/12/24 01:12:39;;;;;;;2.10;1.90;;;;;;;5.18;100.00;73079.59;6183854;23;20193;-57
2023/12/24 01:15:08;;;;;;;2.00;1.90;;;;;;;5.01;100.00;68854.63;6183509;23;20232;-58
2023/12/24 01:17:35;;;;;;;2.50;2.40;;;;;;;5.02;100.00;63687.69;6183724;23;20198;-57
2023/12/24 01:20:03;;;;;;;2.23;2.13;;;;;;;5.09;100.00;62726.59;6183764;23;20162;-57
2023/12/24 01:22:30;;;;;;;2.67;2.50;;;;;;;5.11;100.00;62405.53;6183803;23;20158;-62
2023/12/24 01:24:57;;;;;;;2.53;2.43;;;;;;;5.14;100.00;63699.81;6183963;23;20544;-58
2023/12/24 01:27:24;;;;;;;2.37;2.27;;;;;;;5.18;100.00;64350.00;6185423;23;20162;-56
2023/12/24 01:29:52;;;;;;;2.30;2.20;;;;;;;5.22;100.00;65000.91;6185700;23;20517;-59
2023/12/24 01:32:21;;;;;;;2.60;2.50;;;;;;;5.34;100.00;67599.28;6185227;23;20182;-58
2023/12/24 01:34:48;;;;;;;2.47;2.37;;;;;;;5.31;100.00;69536.00;6185367;23;20213;-58
2023/12/24 01:37:15;;;;;;;2.30;2.20;;;;;;;5.24;100.00;70175.13;6185741;23;20233;-58
2023/12/24 01:39:42;;;;;;;2.50;2.40;;;;;;;5.25;100.00;69529.41;6185249;23;20218;-58
2023/12/24 01:42:10;;;;;;;2.73;2.63;;;;;;;5.14;100.00;70163.00;6185639;23;20178;-59
2023/12/24 01:44:37;;;;;;;2.30;2.10;;;;;;;5.18;100.00;71461.94;6185181;23;20162;-58
2023/12/24 01:47:04;;;;;;;2.07;1.97;;;;;;;5.33;100.00;76986.47;6185604;23;20220;-57
2023/12/24 01:49:33;;;;;;;1.63;1.53;;;;;;;5.32;100.00;89976.63;6185629;23;20232;-58
2023/12/24 01:52:00;;;;;;;1.73;1.63;;;;;;;5.27;100.00;106603.59;6185407;23;20271;-58
2023/12/24 01:54:30;;;;;;;1.53;1.53;;;;;;;5.40;100.00;134985.66;6184927;23;20198;-58
2023/12/24 01:56:57;;;;;;;1.17;1.17;;;;;;;5.43;100.00;145341.84;6185443;23;20549;-58
2023/12/24 01:59:24;;;;;;;1.00;1.00;;;;;;;5.46;100.00;147422.94;6185113;23;20220;-57
2023/12/24 02:01:50;;;;;;;0.97;0.97;;;;;;;5.46;100.00;147424.19;6185538;23;20557;-59
2023/12/24 02:04:18;;;;;;;4.43;0.90;;;;;;;5.35;100.00;147395.22;6185415;23;20180;-58
2023/12/24 02:06:47;;;;;;;1.03;1.03;;;;;;;5.43;100.00;147415.41;6184942;23;20246;-59
2023/12/24 02:09:14;;;;;;;1.10;1.10;;;;;;;5.53;100.00;147440.53;6185404;23;20538;-57
2023/12/24 02:11:41;;;;;;;1.07;1.00;;;;;;;5.54;100.00;147443.06;6184777;23;20186;-57
2023/12/24 02:14:08;;;;;;;1.30;1.20;;;;;;;5.62;100.00;147463.22;6185416;23;20158;-58
2023/12/24 02:16:39;;;;;;;1.00;1.00;;;;;;;5.59;100.00;147455.66;6184990;23;20170;-58
2023/12/24 02:19:11;;;;;;;1.47;0.90;;;;;;;5.51;100.00;147435.53;6185319;23;20242;-57
2023/12/24 02:21:39;;;;;;;0.97;0.97;;;;;;;5.59;100.00;147455.66;6184989;23;20174;-57
2023/12/24 02:24:10;;;;;;;0.80;0.80;;;;;;;5.49;100.00;147431.75;6184772;23;20166;-57
2023/12/24 02:26:43;;;;;;;0.87;0.87;;;;;;;5.41;100.00;147410.34;6185158;23;20217;-57
2023/12/24 02:29:14;;;;;;;1.43;1.37;;;;;;;5.42;100.00;147414.13;6184803;23;20236;-58
2023/12/24 02:31:46;;;;;;;0.90;0.90;;;;;;;5.41;100.00;147410.34;6184756;23;20324;-57
2023/12/24 02:34:17;;;;;;;0.77;0.77;;;;;;;5.45;100.00;147420.41;6184739;23;20169;-58
2023/12/24 02:36:48;;;;;;;1.60;0.90;;;;;;;5.47;100.00;147425.47;6184593;23;20163;-58
2023/12/24 02:39:15;;;;;;;0.70;0.70;;;;;;;5.39;100.00;147405.28;6184729;23;20278;-58
2023/12/24 02:41:42;;;;;;;0.97;0.97;;;;;;;5.63;100.00;147464.47;6185154;23;20158;-57
2023/12/24 02:44:10;;;;;;;0.73;0.73;;;;;;;5.67;100.00;147475.81;6184647;23;20216;-57
2023/12/24 02:46:37;;;;;;;1.10;1.10;;;;;;;5.78;100.00;147502.22;6184543;23;20158;-57
2023/12/24 02:49:04;;;;;;;1.23;0.80;;;;;;;5.81;100.00;147511.03;6185191;23;20220;-58
2023/12/24 02:51:31;;;;;;;1.77;1.67;;;;;;;5.93;100.00;147541.34;6184688;23;20250;-58
2023/12/24 02:54:00;;;;;;;1.10;1.10;;;;;;;6.05;100.00;147569.03;6184519;23;20198;-57
2023/12/24 02:56:27;;;;;;;0.90;0.90;;;;;;;6.11;100.00;147584.16;6184673;23;20220;-57
2023/12/24 02:58:54;;;;;;;1.10;1.10;;;;;;;6.20;100.00;147606.78;6184808;23;20162;-58
2023/12/24 03:01:21;;;;;;;0.70;0.70;;;;;;;6.25;100.00;147620.66;6184559;23;20162;-59
2023/12/24 03:03:49;;;;;;;0.77;0.77;;;;;;;6.43;100.00;147664.75;6184881;23;20166;-58
2023/12/24 03:06:16;;;;;;;1.77;0.90;;;;;;;6.52;100.00;147687.44;6184742;23;20162;-58
2023/12/24 03:08:43;;;;;;;1.00;1.00;;;;;;;6.63;100.00;147713.88;6184531;23;20162;-57
2023/12/24 03:11:11;;;;;;;0.93;0.93;;;;;;;6.74;100.00;147741.63;6184417;23;20186;-58
2023/12/24 03:13:38;;;;;;;0.80;0.80;;;;;;;6.81;100.00;147760.50;6184789;23;20221;-58
2023/12/24 03:16:06;;;;;;;1.00;1.00;;;;;;;6.98;100.00;147800.81;6184373;23;20221;-58
2023/12/24 03:18:33;;;;;;;0.93;0.90;;;;;;;7.07;100.00;147824.78;6184906;23;20221;-59
2023/12/24 03:21:00;;;;;;;0.80;0.80;;;;;;;7.08;100.00;147826.03;6184716;23;20162;-58
2023/12/24 03:23:27;;;;;;;0.80;0.80;;;;;;;7.09;100.00;147828.53;6184650;23;20553;-58
2023/12/24 03:25:55;;;;;;;0.70;0.70;;;;;;;7.04;100.00;147815.97;6184626;23;20236;-58
2023/12/24 03:28:23;;;;;;;1.50;1.13;;;;;;;6.99;100.00;147803.34;6184411;23;20162;-58
2023/12/24 03:30:50;;;;;;;1.10;1.10;;;;;;;6.97;100.00;147799.56;6184575;23;20664;-58
2023/12/24 03:33:17;;;;;;;1.40;1.30;;;;;;;6.93;100.00;147788.22;6184247;23;20159;-57
2023/12/24 03:35:44;;;;;;;1.07;1.07;;;;;;;6.82;100.00;147763.03;6184102;23;20162;-58
2023/12/24 03:38:11;;;;;;;2.00;1.20;;;;;;;6.82;100.00;147761.78;6184156;23;20204;-57
2023/12/24 03:40:39;;;;;;;1.17;1.17;;;;;;;6.83;100.00;147764.31;6184465;23;20497;-57
2023/12/24 03:43:06;;;;;;;4.30;1.07;;;;;;;6.74;100.00;147741.63;6184522;23;20155;-57
2023/12/24 03:45:34;;;;;;;1.20;1.20;;;;;;;6.77;100.00;147749.16;6184128;23;20162;-58
2023/12/24 03:48:05;;;;;;;0.67;0.67;;;;;;;6.74;100.00;147742.88;6183712;23;20162;-58
2023/12/24 03:50:32;;;;;;;1.20;1.20;;;;;;;6.67;100.00;147723.94;6184026;23;20165;-57
2023/12/24 03:52:59;;;;;;;1.20;1.20;;;;;;;6.62;100.00;147712.59;6184147;23;20228;-59
2023/12/24 03:55:26;;;;;;;0.83;0.83;;;;;;;6.64;100.00;147716.41;6184445;23;20549;-57
2023/12/24 03:57:53;;;;;;;1.20;1.20;;;;;;;6.67;100.00;147723.94;6183949;23;20213;-57
2023/12/24 04:00:20;;;;;;;1.03;1.03;;;;;;;6.84;100.00;147768.06;6184479;23;20594;-58
2023/12/24 04:02:49;;;;;;;1.33;1.33;;;;;;;6.96;100.00;147797.03;6184017;23;20158;-58
2023/12/24 04:05:16;;;;;;;1.57;1.47;;;;;;;6.89;100.00;147780.66;6184249;23;20674;-58
2023/12/24 04:07:43;;;;;;;1.57;1.47;;;;;;;6.94;100.00;147790.75;6183963;23;20221;-57
2023/12/24 04:10:10;;;;;;;2.13;1.30;;;;;;;7.11;100.00;147833.59;6183973;23;20158;-57
2023/12/24 04:12:37;;;;;;;1.30;1.20;;;;;;;7.15;100.00;147843.69;6184309;23;20572;-58
2023/12/24 04:15:06;;;;;;;1.40;1.30;;;;;;;7.09;100.00;147828.53;6183854;23;20487;-59
2023/12/24 04:17:34;;;;;;;1.30;1.20;;;;;;;7.06;100.00;147822.25;6183874;23;20185;-57
2023/12/24 04:20:04;;;;;;;1.17;1.17;;;;;;;7.06;100.00;147820.97;6183772;23;20169;-57
2023/12/24 04:22:31;;;;;;;1.10;1.10;;;;;;;7.16;100.00;147846.22;6183865;23;20154;-58
2023/12/24 04:24:58;;;;;;;1.60;1.50;;;;;;;7.08;100.00;147826.03;6183734;23;20166;-58
2023/12/24 04:27:25;;;;;;;1.63;1.53;;;;;;;7.15;100.00;147843.69;6184111;23;20167;-57
2023/12/24 04:29:52;;;;;;;1.93;1.40;;;;;;;7.09;100.00;147829.78;6183944;23;20274;-56
2023/12/24 04:32:20;;;;;;;1.73;1.63;;;;;;;7.02;100.00;147812.16;6184071;23;20182;-57
2023/12/24 04:34:47;;;;;;;1.30;1.30;;;;;;;6.99;100.00;147804.63;6183634;23;20165;-57
2023/12/24 04:37:15;;;;;;;1.63;1.53;;;;;;;6.96;100.00;147795.81;6184341;23;20641;-58
2023/12/24 04:39:42;;;;;;;1.80;1.70;;;;;;;7.07;100.00;147823.50;6183690;23;20216;-57
2023/12/24 04:42:09;;;;;;;2.10;1.37;;;;;;;7.03;100.00;147813.44;6183653;23;20216;-57
2023/12/24 04:44:38;;;;;;;1.27;1.27;;;;;;;7.02;100.00;147812.16;6183694;23;20216;-57
2023/12/24 04:47:07;;;;;;;1.53;1.53;;;;;;;6.99;100.00;147803.34;6183618;23;20246;-57
2023/12/24 04:49:34;;;;;;;1.80;1.67;;;;;;;6.96;100.00;147797.03;6183627;23;20194;-58
2023/12/24 04:52:01;;;;;;;2.30;2.20;;;;;;;7.00;100.00;147805.88;6184096;23;20217;-57
2023/12/24 04:54:29;;;;;;;1.73;1.53;;;;;;;6.94;100.00;147792.00;6183400;23;20198;-60
2023/12/24 04:56:57;;;;;;;1.60;1.50;;;;;;;6.99;100.00;147803.34;6183974;23;20666;-57
2023/12/24 04:59:23;;;;;;;1.83;1.73;;;;;;;6.87;100.00;147775.59;6184498;23;20598;-57
2023/12/24 05:01:51;;;;;;;1.40;1.40;;;;;;;6.73;100.00;147740.34;6185524;23;20169;-58
2023/12/24 05:04:18;;;;;;;2.00;1.27;;;;;;;6.73;100.00;147740.34;6185516;23;20211;-58
2023/12/24 05:06:45;;;;;;;2.47;1.57;;;;;;;6.85;100.00;147770.59;6185860;23;20501;-57
2023/12/24 05:09:12;;;;;;;1.27;1.17;;;;;;;6.85;100.00;147770.59;6185524;23;20213;-57
2023/12/24 05:11:41;;;;;;;2.53;1.20;;;;;;;6.77;100.00;147750.44;6185354;23;20221;-57
2023/12/24 05:14:08;;;;;;;1.20;1.20;;;;;;;6.64;100.00;147717.66;6185494;23;20166;-58
2023/12/24 05:16:35;;;;;;;1.27;1.23;;;;;;;6.74;100.00;147741.63;6185937;23;20216;-58
2023/12/24 05:19:02;;;;;;;1.37;1.27;;;;;;;6.69;100.00;147729.00;6185763;23;20471;-58
2023/12/24 05:21:29;;;;;;;1.80;1.70;;;;;;;6.63;100.00;147715.13;6185813;23;20193;-58
2023/12/24 05:23:57;;;;;;;1.97;1.40;;;;;;;6.58;100.00;147701.25;6185355;23;20159;-57
2023/12/24 05:26:25;;;;;;;1.23;1.23;;;;;;;6.58;100.00;147702.53;6185320;23;20177;-58
2023/12/24 05:28:54;;;;;;;1.43;1.33;;;;;;;6.56;100.00;147697.50;6185705;23;20586;-57
2023/12/24 05:31:21;;;;;;;1.50;1.47;;;;;;;6.61;100.00;147708.84;6186122;23;20158;-57
2023/12/24 05:33:48;;;;;;;2.20;1.60;;;;;;;6.57;100.00;147700.03;6185506;23;20487;-58
2023/12/24 05:36:16;;;;;;;1.50;1.50;;;;;;;6.45;100.00;147668.53;6185383;23;20162;-57
2023/12/24 05:38:43;;;;;;;1.60;1.50;;;;;;;6.58;100.00;147702.53;6185660;23;20166;-58
2023/12/24 05:41:10;;;;;;;3.97;1.43;;;;;;;6.49;100.00;147679.88;6185306;23;20169;-57
2023/12/24 05:43:37;;;;;;;1.50;1.50;;;;;;;6.46;100.00;147672.28;6185560;23;20675;-58
2023/12/24 05:46:12;;;;;;;1.80;1.70;;;;;;;6.62;100.00;147712.59;6185267;23;20165;-57
2023/12/24 05:48:39;;;;;;;3.63;1.80;;;;;;;6.47;100.00;147673.56;6185085;23;20190;-58
2023/12/24 05:51:06;;;;;;;2.10;2.00;;;;;;;6.60;100.00;147707.59;6185096;23;20162;-57
2023/12/24 05:53:33;;;;;;;5.50;1.60;;;;;;;6.67;100.00;147725.22;6184897;23;20280;-58
2023/12/24 05:56:00;;;;;;;2.20;2.00;;;;;;;6.64;100.00;147717.66;6185488;23;20502;-57
2023/12/24 05:58:27;;;;;;;1.60;1.60;;;;;;;6.27;100.00;147624.44;6185497;23;20190;-57
2023/12/24 06:00:54;;;;;;;1.73;1.63;;;;;;;6.63;100.00;147713.88;6185021;23;20166;-57
2023/12/24 06:03:23;;;;;;;7.40;1.90;;;;;;;6.63;100.00;147715.13;6185419;23;20598;-57
2023/12/24 06:05:50;;;;;;;1.60;1.50;;;;;;;6.62;100.00;147712.59;6184860;23;20166;-57
2023/12/24 06:08:17;;;;;;;1.60;1.50;;;;;;;6.46;100.00;147672.28;6185307;23;20212;-57
2023/12/24 06:10:45;;;;;;;1.83;1.73;;;;;;;6.30;100.00;147632.00;6185021;23;20181;-57
2023/12/24 06:13:12;;;;;;;1.90;1.80;;;;;;;6.59;100.00;147705.06;6184877;23;20237;-58
2023/12/24 06:15:39;;;;;;;2.80;2.10;;;;;;;6.79;100.00;147755.44;6185315;23;20216;-57
2023/12/24 06:18:06;;;;;;;2.37;2.27;;;;;;;6.98;100.00;147802.09;6184825;23;20162;-57
2023/12/24 06:20:37;;;;;;;1.97;1.87;;;;;;;7.41;100.00;147909.25;6185214;23;20613;-58
2023/12/24 06:23:04;;;;;;;2.20;2.10;;;;;;;7.81;100.00;148010.09;6184701;23;20221;-58
2023/12/24 06:25:31;;;;;;;3.10;2.07;;;;;;;8.08;100.00;148075.69;6184892;23;20241;-58
2023/12/24 06:27:58;;;;;;;3.07;2.10;;;;;;;8.38;100.00;148150.19;6184730;23;20162;-58
2023/12/24 06:30:25;;;;;;;2.67;2.50;;;;;;;8.61;100.00;148208.25;6184801;23;20174;-57
2023/12/24 06:32:52;;;;;;;2.80;2.30;;;;;;;8.91;100.00;148283.94;6185062;23;20656;-57
2023/12/24 06:35:21;;;;;;;2.33;1.67;;;;;;;9.10;100.00;148330.66;6184596;23;20166;-60
2023/12/24 06:37:49;;;;;;;2.13;2.03;;;;;;;9.27;100.00;148373.59;6184542;23;20162;-57
2023/12/24 06:40:16;;;;;;;2.93;2.47;;;;;;;9.21;100.00;148358.44;6185084;23;20221;-58
2023/12/24 06:42:43;;;;;;;2.77;2.67;;;;;;;9.28;100.00;148376.13;6185096;23;20578;-58
2023/12/24 06:45:11;;;;;;;2.60;2.40;;;;;;;9.52;100.00;148435.47;6184657;23;20162;-57
2023/12/24 06:47:38;;;;;;;3.00;2.80;;;;;;;9.54;100.00;148441.81;6184699;23;20162;-58
2023/12/24 06:50:06;;;;;;;2.70;2.60;;;;;;;9.68;100.00;148475.88;6184896;23;20170;-58
2023/12/24 06:52:34;;;;;;;2.00;1.90;;;;;;;10.20;100.00;148604.78;6184852;23;20198;-59
2023/12/24 06:55:02;;;;;;;3.17;2.20;;;;;;;10.57;100.00;148697.03;6184903;23;20163;-58
2023/12/24 06:57:29;;;;;;;2.07;1.97;;;;;;;11.02;95.68;148810.88;6184647;23;20225;-59
2023/12/24 06:59:56;;;;;;;2.20;2.10;;;;;;;11.21;90.53;148858.91;6184509;23;20166;-58
2023/12/24 07:02:23;;;;;;;2.10;2.00;;;;;;;11.59;90.22;148952.50;6185231;23;20232;-59
2023/12/24 07:04:50;;;;;;;1.77;1.77;;;;;;;12.10;82.99;149080.34;6184804;23;20162;-58
2023/12/24 07:07:17;;;;;;;2.17;2.07;;;;;;;12.97;75.53;149299.38;6184836;23;20544;-58
2023/12/24 07:09:44;;;;;;;2.50;2.30;;;;;;;13.26;71.91;149372.88;6184812;23;20217;-58
2023/12/24 07:12:13;;;;;;;2.60;2.50;;;;;;;13.52;70.87;149436.22;6184211;23;20169;-58
2023/12/24 07:14:40;;;;;;;2.30;2.20;;;;;;;14.33;66.04;149639.00;6184827;23;20162;-60
2023/12/24 07:17:07;;;;;;;2.00;1.90;;;;;;;14.66;65.57;149721.47;6184608;23;20158;-59
2023/12/24 07:19:34;;;;;;;1.80;1.70;;;;;;;15.28;62.22;149878.72;6184297;23;20228;-59
2023/12/24 07:22:02;;;;;;;1.77;1.60;;;;;;;15.87;58.24;150027.25;6184591;23;20162;-59
2023/12/24 07:24:29;;;;;;;1.90;1.80;;;;;;;16.89;56.07;150282.50;6183881;23;20162;-59
2023/12/24 07:26:56;;;;;;;1.70;1.60;;;;;;;16.70;54.78;150235.53;6184789;23;20487;-59
2023/12/24 07:29:25;;;;;;;1.87;1.77;;;;;;;17.20;54.28;150361.28;6184402;23;20166;-58
2023/12/24 07:31:52;;;;;;;2.37;2.20;;;;;;;17.11;53.36;150338.41;6184195;23;20220;-59
2023/12/24 07:34:19;;;;;;;2.43;2.23;;;;;;;17.46;51.44;150424.81;6184571;23;20178;-58
2023/12/24 07:36:46;;;;;;;2.60;2.07;;;;;;;17.20;52.07;150360.00;6184573;23;20625;-60
2023/12/24 07:39:13;;;;;;;3.27;2.10;;;;;;;17.63;50.78;150469.34;6184530;23;20213;-59
2023/12/24 07:41:42;;;;;;;1.73;1.63;;;;;;;17.87;48.82;150527.78;6184107;23;20163;-58
2023/12/24 07:44:10;;;;;;;1.53;1.43;;;;;;;17.47;49.22;150427.38;6184004;23;20201;-58
2023/12/24 07:46:38;;;;;;;2.00;1.70;;;;;;;18.20;48.51;150611.75;6184607;23;20189;-58
2023/12/24 07:49:05;;;;;;;1.90;1.80;;;;;;;18.05;48.08;150574.84;6184297;23;20588;-59
2023/12/24 07:51:33;;;;;;;1.30;1.30;;;;;;;18.88;47.01;150782.19;6184231;23;20174;-59
2023/12/24 07:54:19;;;;;;;1.27;1.17;;;;;;;18.76;46.47;150751.63;5109716;27;21076;-59
2023/12/24 07:56:46;;;;;;;1.55;1.45;;;;;;;19.87;44.76;151031.63;5109691;28;20240;-59
2023/12/24 07:59:13;;;;;;;1.47;1.40;;;;;;;20.39;43.96;151164.09;5109377;28;20187;-58
2023/12/24 08:01:40;;;;;;;1.80;1.40;;;;;;;20.50;42.86;151192.09;5109661;28;20187;-60
2023/12/24 08:04:07;;;;;;;3.25;1.50;;;;;;;20.47;43.17;151184.47;5109294;28;20237;-59
2023/12/24 08:06:34;;;;;;;1.17;1.17;;;;;;;21.97;41.15;151561.75;5109299;28;20187;-58
2023/12/24 08:09:01;;;;;;;3.13;1.45;;;;;;;22.87;39.84;151788.78;5109448;28;20611;-58
2023/12/24 08:11:30;;;;;;;2.58;1.20;;;;;;;22.78;39.71;151765.81;5109122;28;20229;-59
2023/12/24 08:13:57;;;;;;;1.42;1.33;;;;;;;23.04;38.98;151832.13;5109024;28;20208;-58
2023/12/24 08:16:24;;;;;;;2.40;1.48;;;;;;;23.50;38.42;151947.03;5109329;28;20553;-59
2023/12/24 08:18:51;;;;;;;1.60;1.50;;;;;;;23.83;38.04;152030.00;5108928;28;20180;-59
2023/12/24 08:21:18;;;;;;;1.80;1.70;;;;;;;24.06;37.90;152089.97;5108966;28;20350;-59
2023/12/24 08:23:45;;;;;;;1.35;1.27;;;;;;;24.26;37.54;152138.56;5108908;28;20228;-58
2023/12/24 08:26:12;;;;;;;10.50;9.63;;;;;;;23.08;39.61;151842.38;5108899;28;20201;-59
2023/12/24 08:28:40;;;;;;;19.38;12.93;;;;;;;23.54;38.77;151958.53;5109114;28;20184;-58
2023/12/24 08:31:08;;;;;;;30.55;16.48;;;;;;;22.39;40.23;151667.56;5109053;28;20183;-59
2023/12/24 08:33:35;;;;;;;25.75;15.38;;;;;;;21.92;41.79;151547.66;5108955;28;20689;-59
2023/12/24 08:36:02;;;;;;;22.77;12.63;;;;;;;22.00;41.37;151569.38;5108727;28;20191;-59
2023/12/24 08:38:29;;;;;;;12.40;10.32;;;;;;;22.52;41.35;151700.72;5108662;28;20188;-58
2023/12/24 08:40:56;;;;;;;11.13;9.45;;;;;;;22.63;41.36;151727.50;5108922;28;20585;-58
2023/12/24 08:43:23;;;;;;;10.38;7.32;;;;;;;23.34;40.53;151906.16;5108509;28;20184;-59
2023/12/24 08:45:51;;;;;;;7.68;7.03;;;;;;;24.24;38.99;152133.44;5108735;28;20531;-58
2023/12/24 08:48:19;;;;;;;16.55;11.27;;;;;;;23.77;39.10;152015.94;5108524;28;20184;-58
2023/12/24 08:50:46;;;;;;;8.50;6.35;;;;;;;22.61;40.59;151722.41;5108766;28;20617;-59
2023/12/24 08:53:13;;;;;;;4.53;4.22;;;;;;;22.73;40.84;151753.06;5108158;28;20318;-58
2023/12/24 08:55:40;;;;;;;12.93;8.65;;;;;;;23.92;39.92;152054.25;5108238;28;20188;-58
2023/12/24 08:58:07;;;;;;;6.65;6.25;;;;;;;23.21;40.13;151874.28;5108555;28;20183;-59
2023/12/24 09:00:34;;;;;;;8.02;6.07;;;;;;;23.32;40.07;151901.03;5108194;28;20184;-59
2023/12/24 09:03:03;;;;;;;7.25;4.60;;;;;;;22.98;40.57;151816.84;5108103;28;20188;-58
2023/12/24 09:05:30;;;;;;;3.67;2.88;;;;;;;22.46;41.13;151684.13;5094889;28;20613;-59
2023/12/24 09:07:57;;;;;;;3.95;2.95;;;;;;;20.88;43.91;151287.63;5094797;28;20192;-58
2023/12/24 09:10:24;;;;;;;5.13;4.63;;;;;;;20.25;45.14;151127.09;5094493;28;20201;-59
2023/12/24 09:12:51;;;;;;;2.50;2.40;;;;;;;19.75;46.31;151001.09;5094611;28;20208;-58
2023/12/24 09:15:18;;;;;;;1.85;1.85;;;;;;;18.35;50.11;150649.88;5094579;28;20308;-58
2023/12/24 09:17:46;;;;;;;1.73;1.63;;;;;;;18.04;51.16;150572.28;5094518;28;20718;-58
2023/12/24 09:20:14;;;;;;;2.30;2.20;;;;;;;18.43;51.62;150670.22;5094503;28;20184;-58
2023/12/24 09:22:41;;;;;;;2.87;2.67;;;;;;;18.79;50.69;150760.56;5094523;28;20183;-59
2023/12/24 09:25:09;;;;;;;1.43;1.10;;;;;;;17.82;53.66;150515.13;5094531;28;20192;-59
2023/12/24 09:27:36;;;;;;;1.93;1.13;;;;;;;18.03;54.39;150569.78;5094430;28;20608;-58
2023/12/24 09:30:04;;;;;;;3.20;1.33;;;;;;;18.59;53.21;150710.94;5094337;28;20245;-59
2023/12/24 09:32:31;;;;;;;1.53;1.43;;;;;;;18.89;52.37;150784.72;5093997;28;20207;-59
2023/12/24 09:34:58;;;;;;;1.60;1.50;;;;;;;19.66;49.94;150978.16;5094244;28;20600;-60
2023/12/24 09:37:27;;;;;;;2.30;1.70;;;;;;;19.92;49.92;151045.66;5094257;28;20230;-58
2023/12/24 09:39:54;;;;;;;2.00;1.90;;;;;;;20.02;49.13;151069.84;5093867;28;20184;-58
2023/12/24 09:42:22;;;;;;;1.70;1.63;;;;;;;19.69;49.47;150985.84;5093889;28;20192;-59
2023/12/24 09:44:49;;;;;;;1.77;1.67;;;;;;;20.40;48.29;151166.66;5093706;28;20234;-58
2023/12/24 09:47:16;;;;;;;1.65;1.60;;;;;;;21.61;46.14;151469.88;5094068;28;20188;-58
2023/12/24 09:49:43;;;;;;;6.55;1.40;;;;;;;22.55;44.22;151707.09;5093664;28;20287;-57
2023/12/24 09:52:10;;;;;;;5.47;2.33;;;;;;;23.47;43.32;151939.34;5093847;28;20698;-58
2023/12/24 09:54:39;;;;;;;1.38;1.38;;;;;;;23.21;42.72;151875.50;5093489;28;20204;-59
2023/12/24 09:57:07;;;;;;;1.50;1.50;;;;;;;22.28;44.19;151639.47;5093374;28;20184;-59
2023/12/24 09:59:34;;;;;;;1.48;1.48;;;;;;;22.07;45.49;151587.22;5093926;28;20670;-58
2023/12/24 10:02:01;;;;;;;1.50;1.40;;;;;;;20.49;48.40;151188.31;5093717;28;20188;-58
2023/12/24 10:04:28;;;;;;;1.92;1.85;;;;;;;18.69;52.85;150736.41;5093453;28;20257;-58
2023/12/24 10:06:56;;;;;;;1.50;1.50;;;;;;;17.55;57.29;150448.97;5093705;28;20616;-58
2023/12/24 10:09:25;;;;;;;1.60;1.60;;;;;;;16.71;63.57;150238.09;5093622;28;20180;-58
2023/12/24 10:12:08;;;;;;;1.97;1.87;;;;;;;15.68;78.85;149977.75;5093273;28;20192;-58
2023/12/24 10:14:36;;;;;;;2.87;1.70;;;;;;;16.43;78.32;150168.16;5093491;28;20673;-57
2023/12/24 10:17:04;;;;;;;2.00;1.90;;;;;;;16.86;74.74;150276.19;5092150;28;20237;-57
2023/12/24 10:19:31;;;;;;;1.20;1.10;;;;;;;17.07;69.03;150326.97;5093233;28;20195;-58
2023/12/24 10:22:03;;;;;;;1.03;1.00;;;;;;;17.17;68.12;150352.41;5093387;28;20601;-57
2023/12/24 10:24:30;;;;;;;1.10;1.10;;;;;;;17.87;63.73;150529.06;5093336;28;20188;-57
2023/12/24 10:27:05;;;;;;;1.43;0.80;;;;;;;18.21;62.46;150614.25;5092921;28;20191;-58
2023/12/24 10:29:35;;;;;;;0.70;0.70;;;;;;;18.62;60.11;150717.31;5093257;28;20543;-59
2023/12/24 10:32:02;;;;;;;1.60;0.90;;;;;;;19.90;55.61;151039.31;5093174;28;20363;-59
2023/12/24 10:34:30;;;;;;;1.80;1.70;;;;;;;20.51;52.46;151194.66;5092734;28;20293;-59
2023/12/24 10:36:58;;;;;;;1.60;1.55;;;;;;;21.00;49.98;151315.69;5093090;28;20192;-58
2023/12/24 10:39:25;;;;;;;1.30;1.30;;;;;;;21.26;48.83;151383.22;5093038;28;20578;-58
2023/12/24 10:41:54;;;;;;;0.90;0.90;;;;;;;21.54;47.46;151453.34;5092767;28;20176;-59
2023/12/24 10:44:22;;;;;;;1.27;0.90;;;;;;;21.88;46.78;151538.75;5092616;28;20222;-58
2023/12/24 10:46:51;;;;;;;0.80;0.80;;;;;;;22.79;44.66;151767.09;5092581;28;20285;-58
2023/12/24 10:49:18;;;;;;;0.57;0.57;;;;;;;22.96;43.55;151810.44;5092587;28;20191;-57
2023/12/24 10:51:45;;;;;;;0.60;0.60;;;;;;;23.08;43.10;151842.38;5092593;28;20211;-57
2023/12/24 10:54:14;;;;;;;0.80;0.80;;;;;;;24.11;41.93;152101.47;5092352;28;20228;-58
2023/12/24 10:56:53;;;;;;;0.93;0.80;;;;;;;24.35;42.00;152161.53;5092728;28;20646;-57
2023/12/24 10:59:31;;;;;;;1.02;1.02;;;;;;;23.65;43.35;151985.31;5092445;28;20249;-58
2023/12/24 11:02:00;;;;;;;0.82;0.82;;;;;;;21.86;45.52;151534.91;5092581;28;20558;-59
2023/12/24 11:04:41;;;;;;;0.60;0.60;;;;;;;22.05;45.83;151582.13;5092636;28;20202;-57
2023/12/24 11:07:08;;;;;;;1.50;0.90;;;;;;;20.25;49.13;151127.09;5092261;28;20184;-58
2023/12/24 11:09:45;;;;;;;0.70;0.70;;;;;;;19.02;52.85;150817.78;5092283;28;20206;-58
2023/12/24 11:12:30;;;;;;;1.40;0.85;;;;;;;17.99;58.31;150558.34;5092563;28;20267;-57
2023/12/24 11:14:57;;;;;;;0.90;0.90;;;;;;;17.21;65.09;150363.84;5092374;28;20272;-58
2023/12/24 11:17:52;;;;;;;0.93;0.93;;;;;;;16.57;70.88;150202.50;5092424;28;20561;-58
2023/12/24 11:20:39;;;;;;;1.00;1.00;;;;;;;15.65;79.55;149971.44;5092106;28;20188;-57
2023/12/24 11:23:12;;;;;;;0.80;0.80;;;;;;;15.30;84.85;149882.56;5091991;28;20190;-58
2023/12/24 11:25:41;;;;;;;0.80;0.80;;;;;;;14.90;90.17;149782.31;5092050;28;20188;-58
2023/12/24 11:28:11;;;;;;;1.10;1.10;;;;;;;14.82;93.06;149763.31;5091752;28;20176;-58
2023/12/24 11:31:03;;;;;;;0.80;0.80;;;;;;;14.82;95.54;149763.31;5091945;28;20188;-58